Time;durP1;ratioP1;P1;durP2;ratioP2;P2;SDS_P1;SDS_P2;PMS_P1;PMS_P2;Temp;Humidity;BMP_temperature;BMP_pressure;BME280_temperature;BME280_humidity;BME280_pressure;Samples;Min_cycle;Max_cycle;Signal;HPM_P1;HPM_P2
2023/09/26 07:23:00;;;;;;;9.80;7.45;;;;;;;-145.79;86.76;77873.31;5252638;27;1909841;-70
2023/09/26 07:25:32;;;;;;;7.78;6.43;;;;;;;-145.79;86.94;77873.31;5296854;28;20072;-70
2023/09/26 07:28:03;;;;;;;8.63;6.68;;;;;;;-145.79;86.72;77864.81;5288650;28;20021;-71
2023/09/26 07:30:35;;;;;;;10.18;6.38;;;;;;;-145.79;86.61;77852.09;5291713;28;20021;-71
2023/09/26 07:33:07;;;;;;;8.30;7.07;;;;;;;-145.79;86.76;77845.75;5292393;28;20475;-71
2023/09/26 07:35:38;;;;;;;8.13;6.53;;;;;;;-145.79;86.22;77841.50;5288202;28;20033;-70
2023/09/26 07:38:10;;;;;;;8.65;6.22;;;;;;;-145.79;86.17;77826.66;5287254;28;20024;-71
2023/09/26 07:40:41;;;;;;;7.13;6.53;;;;;;;-145.79;84.66;77820.31;5296748;28;20468;-71
2023/09/26 07:43:13;;;;;;;12.90;6.70;;;;;;;-145.79;84.52;77811.81;5288175;28;20061;-70
2023/09/26 07:45:44;;;;;;;10.85;6.95;;;;;;;-145.79;84.42;77805.47;5290874;28;20035;-70
2023/09/26 07:48:16;;;;;;;8.98;7.05;;;;;;;-145.79;84.34;77790.63;5292005;28;20032;-71
2023/09/26 07:50:47;;;;;;;8.43;6.57;;;;;;;-145.79;84.68;77792.75;5291829;28;20024;-71
2023/09/26 07:53:18;;;;;;;9.93;7.47;;;;;;;-145.79;84.58;77786.38;5290677;28;20444;-68
2023/09/26 07:55:49;;;;;;;154.52;24.33;;;;;;;-145.79;83.41;77780.03;5289305;28;20042;-68
2023/09/26 07:58:21;;;;;;;8.90;5.70;;;;;;;-145.79;83.47;77775.78;5291742;28;20025;-67
2023/09/26 08:00:54;;;;;;;10.45;6.30;;;;;;;-145.79;83.36;77771.53;5295687;28;20108;-66
2023/09/26 08:03:25;;;;;;;16.88;5.82;;;;;;;-145.79;83.71;77750.34;5287654;28;20435;-67
2023/09/26 08:06:05;;;;;;;6.13;5.55;;;;;;;-145.79;82.96;77750.34;5289157;28;20060;-67
2023/09/26 08:08:36;;;;;;;6.40;5.72;;;;;;;-145.79;83.07;77744.00;5293583;28;20368;-67
2023/09/26 08:11:10;;;;;;;8.82;6.30;;;;;;;-145.79;82.42;77731.28;5290060;28;20099;-67
2023/09/26 08:13:42;;;;;;;10.57;6.80;;;;;;;-145.79;82.35;77712.19;5292772;28;20024;-67
2023/09/26 08:16:13;;;;;;;14.95;12.38;;;;;;;-145.79;82.22;77707.94;5291293;28;20025;-68
2023/09/26 08:18:44;;;;;;;9.48;7.43;;;;;;;-145.79;81.98;77703.72;5291389;28;20206;-68
2023/09/26 08:21:16;;;;;;;6.88;6.10;;;;;;;-145.79;81.26;77705.84;5290736;28;20043;-68
2023/09/26 08:23:48;;;;;;;16.00;5.72;;;;;;;-145.79;81.38;77691.00;5286955;28;20059;-67
2023/09/26 08:26:19;;;;;;;6.85;5.38;;;;;;;-145.79;80.26;77688.88;5286978;28;20031;-67
2023/09/26 08:28:51;;;;;;;6.35;5.57;;;;;;;-145.79;79.37;77691.00;5290020;28;20126;-67
2023/09/26 08:31:22;;;;;;;7.57;5.68;;;;;;;-145.79;79.63;77674.03;5297762;28;20118;-68
2023/09/26 08:33:53;;;;;;;6.40;5.20;;;;;;;-145.79;78.56;77669.78;5285455;28;20055;-68
2023/09/26 08:36:24;;;;;;;6.13;5.53;;;;;;;-145.79;79.08;77654.97;5272317;28;20021;-68
2023/09/26 08:38:56;;;;;;;10.15;5.57;;;;;;;-145.79;78.11;77657.06;5277208;28;20411;-68
2023/09/26 08:41:29;;;;;;;6.03;5.13;;;;;;;-145.79;76.67;77652.84;5279474;28;20111;-68
2023/09/26 08:44:01;;;;;;;6.00;4.57;;;;;;;-145.79;78.22;77616.81;5273112;28;20033;-68
2023/09/26 08:46:32;;;;;;;6.07;5.25;;;;;;;-145.79;76.54;77623.16;5273870;28;20082;-68
2023/09/26 08:49:04;;;;;;;6.95;4.80;;;;;;;-145.79;75.12;77618.91;5278958;28;20111;-68
2023/09/26 08:51:36;;;;;;;9.68;6.50;;;;;;;-145.79;75.49;77595.59;5273730;28;20029;-68
2023/09/26 08:54:08;;;;;;;7.35;5.28;;;;;;;-145.79;74.04;77589.25;5276592;28;20099;-69
2023/09/26 08:56:39;;;;;;;6.00;4.30;;;;;;;-145.79;72.94;77585.00;5274055;28;20103;-68
2023/09/26 08:59:11;;;;;;;5.40;4.60;;;;;;;-145.79;72.61;77580.75;5272639;28;20087;-68
2023/09/26 09:01:42;;;;;;;6.40;4.03;;;;;;;-145.79;72.03;77580.75;5280185;28;20065;-68
2023/09/26 09:04:17;;;;;;;5.50;4.13;;;;;;;-145.79;71.93;77570.16;5275551;28;20063;-67
2023/09/26 09:07:00;;;;;;;5.18;4.28;;;;;;;-145.79;71.60;77563.81;5283511;28;20024;-68
2023/09/26 09:09:32;;;;;;;8.82;4.28;;;;;;;-145.79;70.42;77563.81;5283834;28;20012;-67
2023/09/26 09:12:24;;;;;;;7.25;4.57;;;;;;;-145.79;71.32;77546.84;5272211;28;20037;-69
2023/09/26 09:14:55;;;;;;;8.85;5.10;;;;;;;-145.79;71.76;77529.88;5280719;28;20111;-67
2023/09/26 09:17:38;;;;;;;7.15;4.95;;;;;;;-145.79;71.35;77519.28;5273321;28;20111;-67
2023/09/26 09:20:16;;;;;;;6.35;4.05;;;;;;;-145.79;69.95;77517.16;5279148;28;20471;-67
2023/09/26 09:22:58;;;;;;;20.20;16.05;;;;;;;-145.79;69.70;77512.94;5279968;28;20499;-68
2023/09/26 09:25:34;;;;;;;5.53;4.40;;;;;;;-145.79;68.90;77508.69;5272959;28;20616;-68
2023/09/26 09:28:07;;;;;;;5.35;4.20;;;;;;;-145.79;68.75;77498.09;5278125;28;20040;-68
2023/09/26 09:30:42;;;;;;;5.07;4.10;;;;;;;-145.79;67.49;77487.50;5273849;28;20422;-68
2023/09/26 09:33:14;;;;;;;4.95;4.13;;;;;;;-145.79;67.55;77479.03;5275174;28;20087;-70
2023/09/26 09:35:46;;;;;;;5.07;3.88;;;;;;;-145.79;67.33;77470.53;5275228;28;20107;-69
2023/09/26 09:38:17;;;;;;;5.10;4.10;;;;;;;-145.79;67.86;77457.81;5281131;28;20027;-69
2023/09/26 09:40:53;;;;;;;6.25;4.50;;;;;;;-145.79;67.53;77451.47;5277411;28;20063;-69
2023/09/26 09:43:25;;;;;;;6.03;3.65;;;;;;;-145.79;67.71;77451.47;5275109;28;20024;-69
2023/09/26 09:46:00;;;;;;;4.78;3.78;;;;;;;-145.79;67.33;77436.63;5273760;28;20029;-69
2023/09/26 09:48:39;;;;;;;5.85;4.22;;;;;;;-145.79;66.88;77417.53;5275481;28;20455;-70
2023/09/26 09:51:15;;;;;;;4.05;3.65;;;;;;;-145.79;65.07;77406.94;5275690;28;20025;-70
2023/09/26 09:53:54;;;;;;;5.93;3.90;;;;;;;-145.79;64.57;77409.06;5272883;28;20040;-70
2023/09/26 09:56:33;;;;;;;5.90;3.38;;;;;;;-145.79;65.22;77396.34;5279581;28;20029;-70
2023/09/26 09:59:12;;;;;;;4.85;3.40;;;;;;;-145.79;64.66;77385.75;5269796;28;20059;-70
2023/09/26 10:01:46;;;;;;;5.68;3.60;;;;;;;-145.79;63.39;77381.50;5271166;28;20037;-72
2023/09/26 10:04:19;;;;;;;5.50;4.18;;;;;;;-145.79;63.75;77381.50;5274549;28;20109;-75
2023/09/26 10:06:52;;;;;;;4.28;3.35;;;;;;;-145.79;63.72;77385.75;5273355;28;20040;-74
2023/09/26 10:09:24;;;;;;;17.45;15.73;;;;;;;-145.79;64.36;77379.41;5269991;28;20032;-75
2023/09/26 10:11:58;;;;;;;6.15;5.07;;;;;;;-145.79;64.23;77373.03;5279705;28;20033;-75
2023/09/26 10:14:31;;;;;;;5.78;3.65;;;;;;;-145.79;64.95;77368.78;5271248;28;20021;-76
2023/09/26 10:17:06;;;;;;;7.28;4.03;;;;;;;-145.79;64.84;77375.16;5272039;28;20082;-74
2023/09/26 10:19:39;;;;;;;5.32;3.67;;;;;;;-145.79;65.05;77368.78;5273499;28;20494;-73
2023/09/26 10:22:20;;;;;;;5.53;4.25;;;;;;;-145.79;64.90;77358.19;5273540;28;20048;-73
2023/09/26 10:24:53;;;;;;;8.60;3.83;;;;;;;-145.79;64.82;77368.78;5269610;28;20036;-73
2023/09/26 10:27:30;;;;;;;5.47;3.58;;;;;;;-145.79;65.66;77353.97;5274657;28;20131;-73
2023/09/26 10:30:02;;;;;;;10.68;4.70;;;;;;;-145.79;65.06;77360.31;5277490;28;20036;-73
2023/09/26 10:32:35;;;;;;;10.10;5.88;;;;;;;-145.79;65.12;77356.06;5274905;28;20053;-72
2023/09/26 10:35:12;;;;;;;5.57;4.20;;;;;;;-145.79;65.39;77353.97;5274154;28;20033;-74
2023/09/26 10:37:54;;;;;;;5.20;3.50;;;;;;;-145.79;65.37;77339.13;5273746;28;20438;-74
2023/09/26 10:40:26;;;;;;;4.72;3.90;;;;;;;-145.79;65.32;77334.88;5278107;28;20028;-74
2023/09/26 10:42:59;;;;;;;6.05;3.60;;;;;;;-145.79;64.78;77330.66;5282752;28;20028;-73
2023/09/26 10:45:30;;;;;;;6.07;3.63;;;;;;;-145.79;66.23;77317.94;5280837;28;20093;-74
2023/09/26 10:48:05;;;;;;;7.47;3.45;;;;;;;-145.79;65.92;77322.16;5274308;28;20032;-74
2023/09/26 10:50:37;;;;;;;8.38;6.50;;;;;;;-145.79;66.08;77334.88;5282615;28;20025;-74
2023/09/26 10:53:09;;;;;;;6.32;3.97;;;;;;;-145.79;65.62;77330.66;5274379;28;20024;-74
2023/09/26 10:55:41;;;;;;;6.53;4.53;;;;;;;-145.79;66.17;77305.22;5272225;28;20403;-73
2023/09/26 10:58:20;;;;;;;8.77;6.10;;;;;;;-145.79;66.21;77296.72;5270359;28;20032;-73
2023/09/26 11:00:52;;;;;;;6.47;4.78;;;;;;;-145.79;64.88;77294.59;5276004;28;20048;-74
2023/09/26 11:03:23;;;;;;;6.60;4.50;;;;;;;-145.79;65.47;77292.50;5273705;28;20021;-75
2023/09/26 11:05:56;;;;;;;7.05;4.72;;;;;;;-145.79;65.62;77286.13;5280739;28;20035;-74
2023/09/26 11:08:28;;;;;;;5.57;4.10;;;;;;;-145.79;65.76;77292.50;5269551;28;20029;-73
2023/09/26 11:10:59;;;;;;;8.10;4.72;;;;;;;-145.79;65.49;77294.59;5272792;28;20040;-74
2023/09/26 11:13:31;;;;;;;6.47;4.22;;;;;;;-145.79;65.53;77296.72;5274340;28;20016;-74
2023/09/26 11:16:03;;;;;;;5.22;3.70;;;;;;;-145.79;65.71;77288.25;5266408;28;20491;-76
2023/09/26 11:18:34;;;;;;;4.35;3.70;;;;;;;-145.79;66.22;77273.41;5274081;28;20424;-76
2023/09/26 11:21:06;;;;;;;6.90;3.85;;;;;;;-145.79;64.66;77262.81;5273873;28;20047;-75
2023/09/26 11:23:39;;;;;;;4.75;4.00;;;;;;;-145.79;65.09;77267.06;5279885;28;20340;-74
2023/09/26 11:26:11;;;;;;;6.05;4.28;;;;;;;-145.79;66.15;77256.47;5274061;28;20029;-75
2023/09/26 11:28:42;;;;;;;5.70;4.43;;;;;;;-145.79;65.20;77267.06;5273656;28;20489;-73
2023/09/26 11:31:15;;;;;;;5.60;4.15;;;;;;;-145.79;65.82;77256.47;5267507;28;20107;-74
2023/09/26 11:33:46;;;;;;;6.50;3.95;;;;;;;-145.79;65.23;77252.22;5273999;28;20025;-73
2023/09/26 11:36:19;;;;;;;9.25;4.70;;;;;;;-145.79;64.94;77245.84;5278234;28;20036;-73
2023/09/26 11:38:52;;;;;;;5.25;4.05;;;;;;;-145.79;63.19;77231.03;5270528;28;20024;-73
2023/09/26 11:41:24;;;;;;;4.47;3.88;;;;;;;-145.79;63.14;77211.94;5281119;28;20029;-72
2023/09/26 11:44:06;;;;;;;5.88;4.03;;;;;;;-145.79;63.78;77220.44;5274088;28;20295;-73
2023/09/26 11:46:48;;;;;;;6.32;4.13;;;;;;;-145.79;63.14;77216.19;5278308;28;20035;-73
2023/09/26 11:49:19;;;;;;;6.05;3.97;;;;;;;-145.79;63.22;77203.47;5262417;28;20114;-73
2023/09/26 11:51:54;;;;;;;5.68;4.45;;;;;;;-145.79;63.08;77203.47;5271720;28;20025;-74
2023/09/26 11:54:25;;;;;;;6.03;3.57;;;;;;;-145.79;63.62;77195.00;5275819;28;20161;-74
2023/09/26 11:56:57;;;;;;;7.25;3.53;;;;;;;-145.79;62.67;77197.09;5272854;28;20058;-74
2023/09/26 11:59:28;;;;;;;13.55;12.23;;;;;;;-145.79;61.77;77173.78;5271845;28;20104;-74
2023/09/26 12:02:00;;;;;;;5.43;3.50;;;;;;;-145.79;60.38;77167.44;5268123;28;20135;-74
2023/09/26 12:04:32;;;;;;;6.05;3.60;;;;;;;-145.79;60.40;77154.72;5271377;28;20058;-75
2023/09/26 12:07:05;;;;;;;5.50;3.88;;;;;;;-145.79;60.29;77146.25;5269472;28;20028;-74
2023/09/26 12:09:36;;;;;;;7.53;5.75;;;;;;;-145.79;60.53;77133.53;5271196;28;20012;-73
2023/09/26 12:12:08;;;;;;;7.13;4.40;;;;;;;-145.79;58.96;77118.69;5275195;28;20029;-73
2023/09/26 12:14:39;;;;;;;4.65;3.58;;;;;;;-145.79;59.18;77114.44;5276193;28;20012;-74
2023/09/26 12:17:10;;;;;;;5.43;3.42;;;;;;;-145.79;59.03;77112.31;5275789;28;20075;-73
2023/09/26 12:19:42;;;;;;;4.35;3.60;;;;;;;-145.79;58.82;77082.66;5275149;28;20036;-72
2023/09/26 12:22:15;;;;;;;5.97;2.97;;;;;;;-145.79;56.16;77084.78;5276009;28;20127;-72
2023/09/26 12:24:47;;;;;;;2.30;2.10;;;;;;;-145.79;54.10;77082.66;5276286;28;20043;-73
2023/09/26 12:27:18;;;;;;;5.75;2.60;;;;;;;-145.79;53.51;77080.53;5272739;28;20029;-73
2023/09/26 12:29:50;;;;;;;2.80;2.03;;;;;;;-145.79;53.14;77072.06;5279309;28;20032;-72
2023/09/26 12:32:22;;;;;;;4.88;2.70;;;;;;;-145.79;53.79;77055.09;5272887;28;20025;-73
2023/09/26 12:34:53;;;;;;;5.60;2.35;;;;;;;-145.79;52.65;77033.91;5276243;28;20123;-72
2023/09/26 12:37:24;;;;;;;3.05;2.10;;;;;;;-145.79;51.79;77031.78;5275899;28;20049;-74
2023/09/26 12:39:56;;;;;;;4.72;2.60;;;;;;;-145.79;50.50;77046.63;5274621;28;20039;-73
2023/09/26 12:42:27;;;;;;;6.30;3.67;;;;;;;-145.79;50.95;77055.09;5274012;28;20072;-74
2023/09/26 12:44:59;;;;;;;3.35;2.58;;;;;;;-145.79;50.54;77052.97;5272561;28;20103;-69
2023/09/26 12:47:30;;;;;;;6.32;2.88;;;;;;;-145.79;51.53;77059.34;5281989;28;20108;-72
2023/09/26 12:50:05;;;;;;;3.40;2.22;;;;;;;-145.79;51.61;77063.59;5271676;28;20052;-73
2023/09/26 12:52:37;;;;;;;3.85;2.28;;;;;;;-145.79;51.63;77061.47;5273124;28;20124;-73
2023/09/26 12:55:09;;;;;;;3.38;2.38;;;;;;;-145.79;51.96;77069.94;5275008;28;20039;-74
2023/09/26 12:57:41;;;;;;;4.18;2.63;;;;;;;-145.79;51.77;77067.81;5273914;28;20027;-73
2023/09/26 13:00:14;;;;;;;3.63;2.38;;;;;;;-145.79;51.97;77063.59;5268879;28;20467;-72
2023/09/26 13:02:45;;;;;;;4.05;2.50;;;;;;;-145.79;51.61;77059.34;5280164;28;20036;-74
2023/09/26 13:05:18;;;;;;;3.63;2.42;;;;;;;-145.79;51.80;77046.63;5284599;28;20375;-75
2023/09/26 13:07:50;;;;;;;4.32;2.72;;;;;;;-145.79;52.27;77033.91;5274355;28;20016;-73
2023/09/26 13:10:21;;;;;;;3.15;2.05;;;;;;;-145.79;52.36;77036.03;5269800;28;20429;-72
2023/09/26 13:12:52;;;;;;;6.03;2.58;;;;;;;-145.79;52.26;77031.78;5273254;28;20100;-78
2023/09/26 13:15:24;;;;;;;4.45;2.35;;;;;;;-145.79;52.50;77031.78;5275451;28;20024;-73
2023/09/26 13:17:55;;;;;;;5.60;2.85;;;;;;;-145.79;52.09;77038.16;5274530;28;20048;-72
2023/09/26 13:20:26;;;;;;;4.13;2.60;;;;;;;-145.79;51.99;77029.66;5270098;28;20102;-72
2023/09/26 13:22:59;;;;;;;3.55;3.25;;;;;;;-145.79;51.85;77021.19;5277910;28;20059;-72
2023/09/26 13:25:30;;;;;;;6.32;2.40;;;;;;;-145.79;51.98;77021.19;5267795;28;20023;-72
2023/09/26 13:28:01;;;;;;;3.85;2.60;;;;;;;-145.79;52.98;77019.06;5275221;28;20430;-72
2023/09/26 13:30:33;;;;;;;5.00;2.30;;;;;;;-145.79;52.05;77021.19;5277970;28;20025;-73
2023/09/26 13:33:04;;;;;;;4.55;2.53;;;;;;;-145.79;51.22;77016.94;5279431;28;20382;-73
2023/09/26 13:35:35;;;;;;;3.75;2.30;;;;;;;-145.79;51.64;77021.19;5271140;28;20074;-73
2023/09/26 13:38:07;;;;;;;3.72;2.22;;;;;;;-145.79;51.69;77023.31;5280030;28;20029;-72
2023/09/26 13:40:40;;;;;;;3.78;2.38;;;;;;;-145.79;51.72;77012.72;5274389;28;20055;-71
2023/09/26 13:43:11;;;;;;;4.60;2.60;;;;;;;-145.79;51.40;77016.94;5274619;28;20040;-72
2023/09/26 13:45:42;;;;;;;3.45;2.63;;;;;;;-145.79;51.69;77016.94;5274188;28;20031;-72
2023/09/26 13:48:14;;;;;;;4.00;2.15;;;;;;;-145.79;51.84;77016.94;5274346;28;20036;-71
2023/09/26 13:50:45;;;;;;;4.07;2.50;;;;;;;-145.79;51.77;77016.94;5269829;28;20392;-71
2023/09/26 13:53:16;;;;;;;4.32;3.40;;;;;;;-145.79;52.27;77008.47;5273227;28;20064;-71
2023/09/26 13:55:48;;;;;;;4.28;2.85;;;;;;;-145.79;52.14;77012.72;5274027;28;20030;-72
2023/09/26 13:58:19;;;;;;;5.47;3.00;;;;;;;-145.79;52.19;77008.47;5269406;28;20029;-70
2023/09/26 14:00:50;;;;;;;6.63;2.90;;;;;;;-145.79;52.69;77014.84;5272673;28;20029;-72
2023/09/26 14:03:22;;;;;;;6.57;2.70;;;;;;;-145.79;52.60;77019.06;5274126;28;20036;-74
2023/09/26 14:05:54;;;;;;;9.90;8.35;;;;;;;-145.79;53.26;77012.72;5271212;28;20130;-72
2023/09/26 14:08:25;;;;;;;5.68;3.00;;;;;;;-145.79;53.17;77006.34;5270423;28;20375;-71
2023/09/26 14:10:57;;;;;;;4.53;2.80;;;;;;;-145.79;53.55;77004.25;5277680;28;20028;-70
2023/09/26 14:13:28;;;;;;;4.32;2.83;;;;;;;-145.79;53.94;77000.00;5280769;28;20051;-71
2023/09/26 14:15:59;;;;;;;2.63;2.05;;;;;;;-145.79;53.31;76997.88;5271807;28;20028;-72
2023/09/26 14:18:32;;;;;;;7.13;6.43;;;;;;;-145.79;52.81;76991.53;5274345;28;20021;-71
2023/09/26 14:21:07;;;;;;;4.78;2.33;;;;;;;-145.79;53.03;76987.28;5272985;28;20857;-70
2023/09/26 14:23:38;;;;;;;2.63;2.20;;;;;;;-145.79;53.28;76970.31;5274814;28;20029;-71
2023/09/26 14:26:11;;;;;;;2.60;2.08;;;;;;;-145.79;53.36;76976.69;5268882;28;20384;-71
2023/09/26 14:28:43;;;;;;;4.63;2.20;;;;;;;-145.79;53.86;76966.09;5281980;28;20032;-71
2023/09/26 14:31:19;;;;;;;3.63;2.00;;;;;;;-145.79;53.27;76970.31;5271414;28;20036;-71
2023/09/26 14:33:50;;;;;;;3.85;2.42;;;;;;;-145.79;53.12;76966.09;5277793;28;20383;-72
2023/09/26 14:36:21;;;;;;;3.42;2.60;;;;;;;-145.79;52.81;76957.59;5271457;28;20041;-71
2023/09/26 14:38:53;;;;;;;3.85;3.03;;;;;;;-145.79;52.59;76966.09;5269179;28;20025;-72
2023/09/26 14:41:24;;;;;;;3.63;2.65;;;;;;;-145.79;53.11;76966.09;5266677;28;20436;-71
2023/09/26 14:43:56;;;;;;;4.65;2.97;;;;;;;-145.79;53.33;76963.97;5272352;28;20028;-71
2023/09/26 14:46:27;;;;;;;3.58;2.67;;;;;;;-145.79;53.47;76959.72;5271787;28;20031;-69
2023/09/26 14:48:59;;;;;;;6.00;3.38;;;;;;;-145.79;53.96;76970.31;5268432;28;20055;-70
2023/09/26 14:51:30;;;;;;;4.93;2.60;;;;;;;-145.79;53.93;76959.72;5272739;28;20020;-71
2023/09/26 14:54:01;;;;;;;2.35;2.10;;;;;;;-145.79;54.13;76963.97;5268087;28;20079;-70
2023/09/26 14:56:32;;;;;;;2.78;2.10;;;;;;;-145.79;54.27;76961.84;5278199;28;20024;-71
2023/09/26 14:59:04;;;;;;;6.47;3.80;;;;;;;-145.79;53.83;76959.72;5280901;28;20028;-71
2023/09/26 15:01:35;;;;;;;4.03;2.60;;;;;;;-145.79;54.27;76966.09;5272180;28;20036;-71
2023/09/26 15:04:06;;;;;;;4.93;2.75;;;;;;;-145.79;54.23;76961.84;5273532;28;20033;-71
2023/09/26 15:06:38;;;;;;;4.78;2.65;;;;;;;-145.79;55.16;76966.09;5273019;28;20017;-71
2023/09/26 15:09:10;;;;;;;2.92;2.60;;;;;;;-145.79;54.46;76970.31;5271599;28;20066;-71
2023/09/26 15:11:41;;;;;;;2.17;1.98;;;;;;;-145.79;54.65;76978.81;5267069;28;20109;-71
2023/09/26 15:14:15;;;;;;;4.88;2.95;;;;;;;-145.79;54.59;76974.56;5273715;28;20017;-70
2023/09/26 15:16:46;;;;;;;3.13;2.50;;;;;;;-145.79;54.48;76983.03;5281432;28;20044;-70
2023/09/26 15:19:17;;;;;;;3.83;2.33;;;;;;;-145.79;54.90;76980.94;5273783;28;20055;-69
2023/09/26 15:21:49;;;;;;;4.05;2.83;;;;;;;-145.79;54.82;76974.56;5272939;28;20582;-69
2023/09/26 15:24:20;;;;;;;4.53;2.47;;;;;;;-145.79;55.04;76976.69;5270766;28;20040;-68
2023/09/26 15:26:51;;;;;;;3.40;2.50;;;;;;;-145.79;54.76;76983.03;5275556;28;20044;-69
2023/09/26 15:29:23;;;;;;;4.07;2.75;;;;;;;-145.79;55.23;76974.56;5272696;28;20028;-70
2023/09/26 15:31:54;;;;;;;4.20;2.60;;;;;;;-145.79;55.68;76966.09;5275141;28;20041;-70
2023/09/26 15:34:25;;;;;;;5.13;2.92;;;;;;;-145.79;55.83;76961.84;5274225;28;20484;-72
2023/09/26 15:36:57;;;;;;;5.78;2.90;;;;;;;-145.79;56.46;76957.59;5262339;28;20468;-71
2023/09/26 15:39:29;;;;;;;5.40;3.13;;;;;;;-145.79;55.28;76966.09;5271820;28;20036;-71
2023/09/26 15:42:01;;;;;;;2.97;2.60;;;;;;;-145.79;55.50;76963.97;5273796;28;20539;-71
2023/09/26 15:44:38;;;;;;;4.95;3.65;;;;;;;-145.79;55.28;76961.84;5274798;28;20107;-73
2023/09/26 15:47:09;;;;;;;3.58;2.65;;;;;;;-145.79;55.73;76953.38;5274350;28;20488;-72
2023/09/26 15:49:40;;;;;;;4.43;3.10;;;;;;;-145.79;56.18;76953.38;5282591;28;20368;-72
2023/09/26 15:52:12;;;;;;;5.90;3.28;;;;;;;-145.79;57.38;76955.50;5276629;28;20071;-71
2023/09/26 15:54:43;;;;;;;4.63;3.47;;;;;;;-145.79;57.75;76944.91;5283910;28;20093;-74
2023/09/26 15:57:14;;;;;;;8.48;3.70;;;;;;;-145.79;57.58;76944.91;5272937;28;20025;-69
2023/09/26 15:59:48;;;;;;;6.15;3.80;;;;;;;-145.79;57.68;76944.91;5277159;28;20028;-68
2023/09/26 16:02:20;;;;;;;5.38;3.47;;;;;;;-145.79;58.10;76944.91;5278175;28;20029;-69
2023/09/26 16:04:51;;;;;;;3.30;2.60;;;;;;;-145.79;57.88;76949.13;5276789;28;20586;-68
2023/09/26 16:07:23;;;;;;;5.45;3.00;;;;;;;-145.79;57.61;76961.84;5276915;28;20028;-72
2023/09/26 16:09:54;;;;;;;3.92;2.83;;;;;;;-145.79;57.39;76953.38;5280373;28;20027;-71
2023/09/26 16:12:25;;;;;;;6.07;3.50;;;;;;;-145.79;58.10;76961.84;5279114;28;20192;-72
2023/09/26 16:14:56;;;;;;;5.82;2.88;;;;;;;-145.79;57.42;76966.09;5269902;28;20039;-72
2023/09/26 16:17:28;;;;;;;3.70;2.45;;;;;;;-145.79;57.20;76966.09;5277468;28;20574;-74
2023/09/26 16:19:59;;;;;;;6.50;3.05;;;;;;;-145.79;57.78;76978.81;5275586;28;20396;-74
2023/09/26 16:22:30;;;;;;;4.43;2.60;;;;;;;-145.79;58.00;76983.03;5270045;28;20051;-73
2023/09/26 16:25:02;;;;;;;4.63;3.25;;;;;;;-145.79;58.05;76989.41;5275678;28;20037;-74
2023/09/26 16:27:33;;;;;;;8.75;3.25;;;;;;;-145.79;58.34;76991.53;5279022;28;20055;-74
2023/09/26 16:30:05;;;;;;;3.97;3.53;;;;;;;-145.79;58.83;77000.00;5276823;28;20031;-75
2023/09/26 16:32:37;;;;;;;6.32;3.30;;;;;;;-145.79;59.05;77000.00;5272385;28;20120;-75
2023/09/26 16:35:08;;;;;;;4.60;3.13;;;;;;;-145.79;58.70;77002.13;5273452;28;20103;-74
2023/09/26 16:37:40;;;;;;;3.65;2.78;;;;;;;-145.79;59.10;76997.88;5277217;28;20028;-74
2023/09/26 16:40:11;;;;;;;3.70;2.70;;;;;;;-145.79;59.21;77004.25;5276188;28;20029;-74
2023/09/26 16:42:42;;;;;;;4.40;3.20;;;;;;;-145.79;59.76;77010.59;5272843;28;20434;-74
2023/09/26 16:45:14;;;;;;;6.90;3.30;;;;;;;-145.79;59.77;77012.72;5284111;28;20035;-74
2023/09/26 16:47:45;;;;;;;3.65;2.72;;;;;;;-145.79;60.09;77008.47;5272279;28;20402;-75
2023/09/26 16:50:17;;;;;;;3.75;3.15;;;;;;;-145.79;60.35;77004.25;5272180;28;20033;-74
2023/09/26 16:52:48;;;;;;;3.33;2.80;;;;;;;-145.79;60.58;77008.47;5283729;28;20024;-74
